sensor_id;sensor_type;location;lat;lon;timestamp;pressure;altitude;pressure_sealevel;temperature;humidity
10064;BME280;5071;52.360;13.134;2023-07-13T00:03:26;100771.00;;;17.14;78.56
10064;BME280;5071;52.360;13.134;2023-07-13T00:08:31;100757.97;;;17.48;77.39
10064;BME280;5071;52.360;13.134;2023-07-13T00:13:34;100772.66;;;17.60;76.69
10064;BME280;5071;52.360;13.134;2023-07-13T00:18:37;100772.81;;;17.35;77.12
10064;BME280;5071;52.360;13.134;2023-07-13T00:23:41;100792.75;;;17.28;78.23
10064;BME280;5071;52.360;13.134;2023-07-13T00:28:45;100788.66;;;17.19;78.78
10064;BME280;5071;52.360;13.134;2023-07-13T00:33:47;100776.63;;;17.06;78.15
10064;BME280;5071;52.360;13.134;2023-07-13T00:38:49;100773.34;;;16.74;79.94
10064;BME280;5071;52.360;13.134;2023-07-13T00:43:53;100783.94;;;16.54;80.68
10064;BME280;5071;52.360;13.134;2023-07-13T00:48:59;100786.34;;;16.36;81.34
10064;BME280;5071;52.360;13.134;2023-07-13T00:54:06;100794.16;;;16.17;81.71
10064;BME280;5071;52.360;13.134;2023-07-13T00:59:11;100791.44;;;15.92;82.62
10064;BME280;5071;52.360;13.134;2023-07-13T01:04:13;100801.94;;;15.70;82.94
10064;BME280;5071;52.360;13.134;2023-07-13T01:09:16;100799.56;;;15.61;84.52
10064;BME280;5071;52.360;13.134;2023-07-13T01:14:20;100798.53;;;15.65;84.36
10064;BME280;5071;52.360;13.134;2023-07-13T01:19:33;100792.72;;;15.52;84.53
10064;BME280;5071;52.360;13.134;2023-07-13T01:24:40;100793.94;;;15.42;85.61
10064;BME280;5071;52.360;13.134;2023-07-13T01:29:44;100796.13;;;15.29;85.76
10064;BME280;5071;52.360;13.134;2023-07-13T01:34:46;100785.91;;;15.13;86.15
10064;BME280;5071;52.360;13.134;2023-07-13T01:39:50;100787.00;;;15.06;86.42
10064;BME280;5071;52.360;13.134;2023-07-13T01:44:52;100802.13;;;15.07;87.38
10064;BME280;5071;52.360;13.134;2023-07-13T01:49:54;100797.47;;;15.14;87.00
10064;BME280;5071;52.360;13.134;2023-07-13T01:54:58;100807.25;;;15.15;87.67
10064;BME280;5071;52.360;13.134;2023-07-13T02:00:02;100785.91;;;15.13;87.76
10064;BME280;5071;52.360;13.134;2023-07-13T02:05:05;100797.06;;;14.98;88.75
10064;BME280;5071;52.360;13.134;2023-07-13T02:10:10;100788.56;;;14.84;89.29
10064;BME280;5071;52.360;13.134;2023-07-13T02:15:13;100785.78;;;14.57;89.83
10064;BME280;5071;52.360;13.134;2023-07-13T02:20:15;100770.53;;;14.61;90.76
10064;BME280;5071;52.360;13.134;2023-07-13T02:25:18;100767.53;;;14.71;90.09
10064;BME280;5071;52.360;13.134;2023-07-13T02:30:20;100775.25;;;14.51;90.27
10064;BME280;5071;52.360;13.134;2023-07-13T02:35:23;100777.06;;;14.49;91.17
10064;BME280;5071;52.360;13.134;2023-07-13T02:40:26;100791.59;;;14.38;91.17
10064;BME280;5071;52.360;13.134;2023-07-13T02:45:29;100794.91;;;14.47;91.50
10064;BME280;5071;52.360;13.134;2023-07-13T02:50:31;100801.94;;;14.51;91.37
10064;BME280;5071;52.360;13.134;2023-07-13T02:55:35;100814.59;;;14.44;91.60
10064;BME280;5071;52.360;13.134;2023-07-13T03:00:38;100808.72;;;14.30;91.97
10064;BME280;5071;52.360;13.134;2023-07-13T03:05:42;100814.88;;;14.33;92.71
10064;BME280;5071;52.360;13.134;2023-07-13T03:10:46;100820.03;;;14.39;93.35
10064;BME280;5071;52.360;13.134;2023-07-13T03:15:48;100798.59;;;14.43;92.94
10064;BME280;5071;52.360;13.134;2023-07-13T03:20:50;100815.19;;;14.54;92.34
10064;BME280;5071;52.360;13.134;2023-07-13T03:26:03;100807.22;;;14.52;91.79
10064;BME280;5071;52.360;13.134;2023-07-13T03:31:08;100823.03;;;14.62;92.63
10064;BME280;5071;52.360;13.134;2023-07-13T03:36:14;100837.53;;;14.84;90.90
10064;BME280;5071;52.360;13.134;2023-07-13T03:41:18;100832.72;;;14.97;90.36
10064;BME280;5071;52.360;13.134;2023-07-13T03:46:21;100834.91;;;15.14;89.82
10064;BME280;5071;52.360;13.134;2023-07-13T03:51:23;100842.69;;;15.22;89.60
10064;BME280;5071;52.360;13.134;2023-07-13T03:56:26;100845.50;;;15.17;89.90
10064;BME280;5071;52.360;13.134;2023-07-13T04:01:29;100844.25;;;15.29;90.42
10064;BME280;5071;52.360;13.134;2023-07-13T04:06:32;100846.34;;;15.49;88.81
10064;BME280;5071;52.360;13.134;2023-07-13T04:11:36;100854.59;;;15.69;88.48
10064;BME280;5071;52.360;13.134;2023-07-13T04:16:38;100849.63;;;15.87;87.91
10064;BME280;5071;52.360;13.134;2023-07-13T04:21:40;100857.88;;;16.07;86.42
10064;BME280;5071;52.360;13.134;2023-07-13T04:26:44;100857.72;;;16.39;84.91
10064;BME280;5071;52.360;13.134;2023-07-13T04:31:47;100865.06;;;17.07;85.00
10064;BME280;5071;52.360;13.134;2023-07-13T04:36:49;100871.72;;;18.75;77.71
10064;BME280;5071;52.360;13.134;2023-07-13T04:41:53;100874.66;;;19.29;71.66
10064;BME280;5071;52.360;13.134;2023-07-13T04:46:55;100872.47;;;20.83;67.21
10064;BME280;5071;52.360;13.134;2023-07-13T04:51:57;100869.75;;;22.29;60.44
10064;BME280;5071;52.360;13.134;2023-07-13T04:57:00;100881.09;;;22.04;63.13
10064;BME280;5071;52.360;13.134;2023-07-13T05:02:03;100884.13;;;23.48;59.50
10064;BME280;5071;52.360;13.134;2023-07-13T05:07:05;100895.22;;;25.19;51.64
10064;BME280;5071;52.360;13.134;2023-07-13T05:12:10;100895.16;;;25.71;50.87
10064;BME280;5071;52.360;13.134;2023-07-13T05:17:12;100891.97;;;24.49;52.35
10064;BME280;5071;52.360;13.134;2023-07-13T05:22:14;100898.94;;;25.31;50.87
10064;BME280;5071;52.360;13.134;2023-07-13T05:27:18;100900.84;;;26.29;49.38
10064;BME280;5071;52.360;13.134;2023-07-13T05:32:21;100909.28;;;26.37;49.51
10064;BME280;5071;52.360;13.134;2023-07-13T05:37:23;100910.50;;;26.09;48.30
10064;BME280;5071;52.360;13.134;2023-07-13T05:42:27;100908.84;;;27.59;46.05
10064;BME280;5071;52.360;13.134;2023-07-13T05:47:29;100908.38;;;26.85;44.99
10064;BME280;5071;52.360;13.134;2023-07-13T05:52:31;100918.88;;;29.72;41.23
10064;BME280;5071;52.360;13.134;2023-07-13T05:57:35;100920.31;;;30.27;41.83
10064;BME280;5071;52.360;13.134;2023-07-13T06:02:37;100914.38;;;31.84;36.72
10064;BME280;5071;52.360;13.134;2023-07-13T06:07:39;100911.56;;;28.25;42.21
10064;BME280;5071;52.360;13.134;2023-07-13T06:12:42;100920.59;;;27.60;42.39
10064;BME280;5071;52.360;13.134;2023-07-13T06:17:45;100896.09;;;26.19;45.87
10064;BME280;5071;52.360;13.134;2023-07-13T06:22:47;100901.22;;;23.92;52.71
10064;BME280;5071;52.360;13.134;2023-07-13T06:27:51;100904.38;;;26.18;48.41
10064;BME280;5071;52.360;13.134;2023-07-13T06:32:53;100898.38;;;27.08;46.86
10064;BME280;5071;52.360;13.134;2023-07-13T06:37:55;100910.97;;;28.22;44.01
10064;BME280;5071;52.360;13.134;2023-07-13T06:42:59;100900.41;;;26.70;46.72
10064;BME280;5071;52.360;13.134;2023-07-13T06:48:01;100908.41;;;27.19;46.06
10064;BME280;5071;52.360;13.134;2023-07-13T06:53:03;100908.38;;;26.96;45.20
10064;BME280;5071;52.360;13.134;2023-07-13T06:58:06;100905.34;;;26.76;46.08
10064;BME280;5071;52.360;13.134;2023-07-13T07:03:09;100899.63;;;25.72;47.50
10064;BME280;5071;52.360;13.134;2023-07-13T07:08:11;100911.69;;;26.77;44.66
10064;BME280;5071;52.360;13.134;2023-07-13T07:13:15;100923.41;;;29.00;42.06
10064;BME280;5071;52.360;13.134;2023-07-13T07:18:17;100915.34;;;27.11;44.18
10064;BME280;5071;52.360;13.134;2023-07-13T07:23:19;100920.59;;;27.94;42.38
10064;BME280;5071;52.360;13.134;2023-07-13T07:28:23;100935.63;;;28.85;42.43
10064;BME280;5071;52.360;13.134;2023-07-13T07:33:28;100933.72;;;27.66;43.29
10064;BME280;5071;52.360;13.134;2023-07-13T07:38:30;100928.06;;;26.29;44.45
10064;BME280;5071;52.360;13.134;2023-07-13T07:43:33;100924.28;;;27.92;43.19
10064;BME280;5071;52.360;13.134;2023-07-13T07:48:35;100937.19;;;26.76;44.35
10064;BME280;5071;52.360;13.134;2023-07-13T07:53:37;100941.63;;;26.05;45.47
10064;BME280;5071;52.360;13.134;2023-07-13T07:58:41;100935.06;;;24.80;49.08
10064;BME280;5071;52.360;13.134;2023-07-13T08:03:45;100933.28;;;23.85;51.20
10064;BME280;5071;52.360;13.134;2023-07-13T08:08:51;100936.88;;;24.13;50.57
10064;BME280;5071;52.360;13.134;2023-07-13T08:13:54;100942.75;;;24.47;50.27
10064;BME280;5071;52.360;13.134;2023-07-13T08:18:56;100936.66;;;25.86;47.80
10064;BME280;5071;52.360;13.134;2023-07-13T08:23:58;100939.97;;;27.10;44.84
10064;BME280;5071;52.360;13.134;2023-07-13T08:29:02;100952.16;;;30.28;38.86
10064;BME280;5071;52.360;13.134;2023-07-13T08:34:04;100959.41;;;31.07;36.74
10064;BME280;5071;52.360;13.134;2023-07-13T08:39:06;100954.22;;;30.84;36.08
10064;BME280;5071;52.360;13.134;2023-07-13T08:44:31;100949.00;;;31.95;33.99
10064;BME280;5071;52.360;13.134;2023-07-13T08:49:39;100951.34;;;33.34;32.88
10064;BME280;5071;52.360;13.134;2023-07-13T08:54:45;100952.81;;;33.46;29.28
10064;BME280;5071;52.360;13.134;2023-07-13T08:59:51;100953.91;;;30.87;32.85
10064;BME280;5071;52.360;13.134;2023-07-13T09:04:56;100953.63;;;30.32;35.89
10064;BME280;5071;52.360;13.134;2023-07-13T09:10:11;100941.72;;;27.00;40.63
10064;BME280;5071;52.360;13.134;2023-07-13T09:15:28;100942.78;;;28.44;39.10
10064;BME280;5071;52.360;13.134;2023-07-13T09:20:34;100958.81;;;33.15;30.43
10064;BME280;5071;52.360;13.134;2023-07-13T09:25:37;100949.50;;;31.81;30.87
10064;BME280;5071;52.360;13.134;2023-07-13T09:30:49;100951.97;;;31.74;32.92
10064;BME280;5071;52.360;13.134;2023-07-13T09:35:52;100947.97;;;28.47;35.49
10064;BME280;5071;52.360;13.134;2023-07-13T09:41:04;100946.78;;;28.93;36.25
10064;BME280;5071;52.360;13.134;2023-07-13T09:46:21;100951.06;;;30.79;32.89
10064;BME280;5071;52.360;13.134;2023-07-13T09:51:23;100946.84;;;28.82;36.10
10064;BME280;5071;52.360;13.134;2023-07-13T09:56:28;100969.72;;;26.29;38.28
10064;BME280;5071;52.360;13.134;2023-07-13T10:01:34;100956.81;;;29.25;36.86
10064;BME280;5071;52.360;13.134;2023-07-13T10:06:37;100963.31;;;29.34;34.24
10064;BME280;5071;52.360;13.134;2023-07-13T10:11:40;100953.53;;;26.76;39.26
10064;BME280;5071;52.360;13.134;2023-07-13T10:16:45;100959.94;;;25.90;40.79
10064;BME280;5071;52.360;13.134;2023-07-13T10:21:52;100961.72;;;25.65;42.47
10064;BME280;5071;52.360;13.134;2023-07-13T10:26:58;100970.53;;;26.43;40.20
10064;BME280;5071;52.360;13.134;2023-07-13T10:32:08;100973.56;;;31.02;32.71
10064;BME280;5071;52.360;13.134;2023-07-13T10:37:17;100963.91;;;31.65;31.27
10064;BME280;5071;52.360;13.134;2023-07-13T10:42:27;100960.44;;;28.28;35.79
10064;BME280;5071;52.360;13.134;2023-07-13T10:47:32;100965.50;;;28.77;36.21
10064;BME280;5071;52.360;13.134;2023-07-13T10:52:46;100961.00;;;29.91;35.38
10064;BME280;5071;52.360;13.134;2023-07-13T10:57:48;100959.88;;;30.03;32.41
10064;BME280;5071;52.360;13.134;2023-07-13T11:02:58;100961.00;;;29.29;34.64
10064;BME280;5071;52.360;13.134;2023-07-13T11:08:13;100959.59;;;28.93;34.71
10064;BME280;5071;52.360;13.134;2023-07-13T11:13:38;100960.50;;;29.03;33.59
10064;BME280;5071;52.360;13.134;2023-07-13T11:18:45;100952.28;;;28.17;35.49
10064;BME280;5071;52.360;13.134;2023-07-13T11:23:52;100952.59;;;27.46;35.35
10064;BME280;5071;52.360;13.134;2023-07-13T11:28:55;100950.81;;;28.02;35.32
10064;BME280;5071;52.360;13.134;2023-07-13T11:33:58;100938.91;;;29.00;35.19
10064;BME280;5071;52.360;13.134;2023-07-13T11:39:04;100943.50;;;28.99;33.95
10064;BME280;5071;52.360;13.134;2023-07-13T11:44:12;100940.53;;;29.02;33.62
10064;BME280;5071;52.360;13.134;2023-07-13T11:49:20;100946.81;;;29.14;33.03
10064;BME280;5071;52.360;13.134;2023-07-13T11:54:27;100925.28;;;29.92;32.32
10064;BME280;5071;52.360;13.134;2023-07-13T11:59:30;100938.66;;;29.24;33.71
10064;BME280;5071;52.360;13.134;2023-07-13T12:04:34;100924.66;;;28.10;33.40
10064;BME280;5071;52.360;13.134;2023-07-13T12:09:36;100926.56;;;28.31;35.96
10064;BME280;5071;52.360;13.134;2023-07-13T12:14:38;100931.50;;;28.69;33.94
10064;BME280;5071;52.360;13.134;2023-07-13T12:19:42;100938.19;;;28.01;34.44
10064;BME280;5071;52.360;13.134;2023-07-13T12:24:44;100935.13;;;28.26;35.82
10064;BME280;5071;52.360;13.134;2023-07-13T12:29:50;100930.97;;;28.11;35.33
10064;BME280;5071;52.360;13.134;2023-07-13T12:34:56;100945.59;;;28.86;33.04
10064;BME280;5071;52.360;13.134;2023-07-13T12:39:58;100944.00;;;28.40;34.72
10064;BME280;5071;52.360;13.134;2023-07-13T12:45:03;100919.94;;;28.01;33.48
10064;BME280;5071;52.360;13.134;2023-07-13T12:50:15;100937.59;;;27.75;35.46
10064;BME280;5071;52.360;13.134;2023-07-13T12:55:20;100944.19;;;27.03;35.15
10064;BME280;5071;52.360;13.134;2023-07-13T13:00:28;100945.69;;;27.07;35.90
10064;BME280;5071;52.360;13.134;2023-07-13T13:05:33;100940.78;;;27.91;35.25
10064;BME280;5071;52.360;13.134;2023-07-13T13:10:35;100933.38;;;28.37;33.83
10064;BME280;5071;52.360;13.134;2023-07-13T13:15:38;100930.03;;;28.33;33.93
10064;BME280;5071;52.360;13.134;2023-07-13T13:20:41;100932.25;;;27.96;33.11
10064;BME280;5071;52.360;13.134;2023-07-13T13:25:44;100926.66;;;28.41;32.89
10064;BME280;5071;52.360;13.134;2023-07-13T13:30:48;100924.09;;;28.28;34.37
10064;BME280;5071;52.360;13.134;2023-07-13T13:35:52;100932.50;;;27.36;35.26
10064;BME280;5071;52.360;13.134;2023-07-13T13:40:54;100922.91;;;27.19;36.28
10064;BME280;5071;52.360;13.134;2023-07-13T13:45:57;100940.13;;;27.20;37.18
10064;BME280;5071;52.360;13.134;2023-07-13T13:51:14;100939.94;;;27.34;35.33
10064;BME280;5071;52.360;13.134;2023-07-13T13:56:18;100940.16;;;27.42;36.85
10064;BME280;5071;52.360;13.134;2023-07-13T14:01:21;100931.59;;;27.24;35.80
10064;BME280;5071;52.360;13.134;2023-07-13T14:06:25;100942.59;;;27.11;36.52
10064;BME280;5071;52.360;13.134;2023-07-13T14:11:29;100944.28;;;27.59;35.79
10064;BME280;5071;52.360;13.134;2023-07-13T14:16:33;100951.84;;;27.89;35.07
10064;BME280;5071;52.360;13.134;2023-07-13T14:21:37;100956.81;;;27.50;35.52
10064;BME280;5071;52.360;13.134;2023-07-13T14:26:40;100945.50;;;27.32;35.40
10064;BME280;5071;52.360;13.134;2023-07-13T14:31:43;100948.09;;;27.68;34.18
10064;BME280;5071;52.360;13.134;2023-07-13T14:36:48;100942.72;;;28.11;34.05
10064;BME280;5071;52.360;13.134;2023-07-13T14:41:52;100961.25;;;27.74;33.72
10064;BME280;5071;52.360;13.134;2023-07-13T14:46:55;100948.59;;;27.28;33.67
10064;BME280;5071;52.360;13.134;2023-07-13T14:52:05;100950.72;;;27.47;32.77
10064;BME280;5071;52.360;13.134;2023-07-13T14:57:11;100950.94;;;27.66;33.27
10064;BME280;5071;52.360;13.134;2023-07-13T15:02:15;100943.66;;;27.67;34.72
10064;BME280;5071;52.360;13.134;2023-07-13T15:07:20;100947.09;;;28.14;34.41
10064;BME280;5071;52.360;13.134;2023-07-13T15:12:22;100937.81;;;28.38;32.48
10064;BME280;5071;52.360;13.134;2023-07-13T15:17:26;100952.06;;;27.75;32.68
10064;BME280;5071;52.360;13.134;2023-07-13T15:22:31;100945.16;;;27.48;32.22
10064;BME280;5071;52.360;13.134;2023-07-13T15:27:33;100950.84;;;27.90;33.31
10064;BME280;5071;52.360;13.134;2023-07-13T15:32:35;100939.19;;;28.32;32.01
10064;BME280;5071;52.360;13.134;2023-07-13T15:37:39;100927.25;;;28.44;32.59
10064;BME280;5071;52.360;13.134;2023-07-13T15:42:42;100941.16;;;27.86;33.98
10064;BME280;5071;52.360;13.134;2023-07-13T15:47:46;100933.47;;;27.80;33.94
10064;BME280;5071;52.360;13.134;2023-07-13T15:52:52;100931.38;;;27.72;32.04
10064;BME280;5071;52.360;13.134;2023-07-13T15:57:55;100930.09;;;27.20;33.08
10064;BME280;5071;52.360;13.134;2023-07-13T16:02:57;100923.56;;;27.90;33.35
10064;BME280;5071;52.360;13.134;2023-07-13T16:08:01;100926.88;;;28.05;32.94
10064;BME280;5071;52.360;13.134;2023-07-13T16:13:04;100927.31;;;27.67;33.39
10064;BME280;5071;52.360;13.134;2023-07-13T16:18:06;100918.59;;;27.73;31.96
10064;BME280;5071;52.360;13.134;2023-07-13T16:23:11;100934.34;;;28.03;32.55
10064;BME280;5071;52.360;13.134;2023-07-13T16:28:14;100931.88;;;27.66;32.68
10064;BME280;5071;52.360;13.134;2023-07-13T16:33:16;100932.75;;;27.67;32.28
10064;BME280;5071;52.360;13.134;2023-07-13T16:38:21;100932.38;;;27.26;33.41
10064;BME280;5071;52.360;13.134;2023-07-13T16:43:24;100942.88;;;26.73;33.63
10064;BME280;5071;52.360;13.134;2023-07-13T16:48:27;100932.72;;;25.90;35.17
10064;BME280;5071;52.360;13.134;2023-07-13T16:53:30;100940.00;;;25.52;36.29
10064;BME280;5071;52.360;13.134;2023-07-13T16:58:33;100951.19;;;25.60;37.41
10064;BME280;5071;52.360;13.134;2023-07-13T17:03:35;100995.56;;;25.48;36.85
10064;BME280;5071;52.360;13.134;2023-07-13T17:08:39;101039.16;;;23.39;46.92
10064;BME280;5071;52.360;13.134;2023-07-13T17:13:41;101059.16;;;21.94;51.99
10064;BME280;5071;52.360;13.134;2023-07-13T17:18:43;101058.53;;;21.21;55.95
10064;BME280;5071;52.360;13.134;2023-07-13T17:23:48;101062.31;;;20.82;58.70
10064;BME280;5071;52.360;13.134;2023-07-13T17:28:50;101077.63;;;20.63;59.70
10064;BME280;5071;52.360;13.134;2023-07-13T17:40:22;101081.31;;;20.62;59.01
10064;BME280;5071;52.360;13.134;2023-07-13T17:45:26;101083.38;;;20.55;58.51
10064;BME280;5071;52.360;13.134;2023-07-13T17:50:30;101083.63;;;20.50;58.40
10064;BME280;5071;52.360;13.134;2023-07-13T17:55:34;101089.00;;;20.50;58.61
10064;BME280;5071;52.360;13.134;2023-07-13T18:00:38;101069.72;;;20.41;57.87
10064;BME280;5071;52.360;13.134;2023-07-13T18:05:41;101083.25;;;20.94;56.94
10064;BME280;5071;52.360;13.134;2023-07-13T18:10:45;101106.63;;;20.95;57.11
10064;BME280;5071;52.360;13.134;2023-07-13T18:15:47;101099.81;;;20.69;57.83
10064;BME280;5071;52.360;13.134;2023-07-13T18:20:50;101098.78;;;20.72;57.04
10064;BME280;5071;52.360;13.134;2023-07-13T18:25:54;101102.00;;;20.42;57.88
10064;BME280;5071;52.360;13.134;2023-07-13T18:30:57;101105.03;;;20.34;58.02
10064;BME280;5071;52.360;13.134;2023-07-13T18:36:01;101106.06;;;20.13;58.69
10064;BME280;5071;52.360;13.134;2023-07-13T18:41:05;101104.59;;;20.25;59.99
10064;BME280;5071;52.360;13.134;2023-07-13T18:46:13;101106.72;;;20.37;59.59
10064;BME280;5071;52.360;13.134;2023-07-13T18:51:17;101101.53;;;20.13;60.45
10064;BME280;5071;52.360;13.134;2023-07-13T18:56:21;101118.88;;;20.08;59.93
10064;BME280;5071;52.360;13.134;2023-07-13T19:01:27;101121.66;;;19.86;60.88
10064;BME280;5071;52.360;13.134;2023-07-13T19:06:31;101131.41;;;19.68;61.92
10064;BME280;5071;52.360;13.134;2023-07-13T19:11:34;101140.91;;;19.56;62.58
10064;BME280;5071;52.360;13.134;2023-07-13T19:16:36;101141.56;;;19.40;62.73
10064;BME280;5071;52.360;13.134;2023-07-13T19:21:38;101145.72;;;19.27;64.04
10064;BME280;5071;52.360;13.134;2023-07-13T19:26:42;101145.66;;;19.07;64.42
10064;BME280;5071;52.360;13.134;2023-07-13T19:31:45;101144.41;;;18.93;65.81
10064;BME280;5071;52.360;13.134;2023-07-13T19:36:48;101167.72;;;18.94;65.84
10064;BME280;5071;52.360;13.134;2023-07-13T19:41:54;101180.34;;;18.92;65.99
10064;BME280;5071;52.360;13.134;2023-07-13T19:46:57;101183.66;;;18.99;66.00
10064;BME280;5071;52.360;13.134;2023-07-13T19:52:00;101190.75;;;19.01;66.15
10064;BME280;5071;52.360;13.134;2023-07-13T19:57:04;101200.88;;;18.95;66.43
10064;BME280;5071;52.360;13.134;2023-07-13T20:02:06;101199.69;;;18.78;67.59
10064;BME280;5071;52.360;13.134;2023-07-13T20:07:29;101208.91;;;18.71;67.91
10064;BME280;5071;52.360;13.134;2023-07-13T20:12:36;101209.66;;;18.53;69.31
10064;BME280;5071;52.360;13.134;2023-07-13T20:17:38;101212.16;;;18.57;69.36
10064;BME280;5071;52.360;13.134;2023-07-13T20:22:40;101219.16;;;18.61;69.49
10064;BME280;5071;52.360;13.134;2023-07-13T20:27:44;101219.63;;;18.49;70.84
10064;BME280;5071;52.360;13.134;2023-07-13T20:32:47;101225.22;;;18.43;71.06
10064;BME280;5071;52.360;13.134;2023-07-13T20:37:49;101222.53;;;18.19;71.82
10064;BME280;5071;52.360;13.134;2023-07-13T20:42:53;101220.78;;;17.93;72.98
10064;BME280;5071;52.360;13.134;2023-07-13T20:47:59;101230.31;;;17.75;73.57
10064;BME280;5071;52.360;13.134;2023-07-13T20:53:02;101229.75;;;17.65;73.94
10064;BME280;5071;52.360;13.134;2023-07-13T20:58:05;101227.06;;;17.65;75.29
10064;BME280;5071;52.360;13.134;2023-07-13T21:03:16;101231.22;;;17.76;74.25
10064;BME280;5071;52.360;13.134;2023-07-13T21:08:21;101243.44;;;17.84;74.37
10064;BME280;5071;52.360;13.134;2023-07-13T21:13:25;101243.53;;;17.81;73.93
10064;BME280;5071;52.360;13.134;2023-07-13T21:18:27;101243.59;;;17.80;74.70
10064;BME280;5071;52.360;13.134;2023-07-13T21:23:31;101244.56;;;17.77;74.51
10064;BME280;5071;52.360;13.134;2023-07-13T21:28:37;101242.94;;;17.72;75.49
10064;BME280;5071;52.360;13.134;2023-07-13T21:33:40;101246.81;;;17.64;74.98
10064;BME280;5071;52.360;13.134;2023-07-13T21:38:43;101240.97;;;17.52;74.91
10064;BME280;5071;52.360;13.134;2023-07-13T21:43:47;101258.19;;;17.44;75.03
10064;BME280;5071;52.360;13.134;2023-07-13T21:48:49;101256.88;;;17.29;75.27
10064;BME280;5071;52.360;13.134;2023-07-13T21:53:53;101264.44;;;17.17;77.29
10064;BME280;5071;52.360;13.134;2023-07-13T21:58:57;101269.94;;;16.84;77.78
10064;BME280;5071;52.360;13.134;2023-07-13T22:03:59;101267.97;;;16.58;79.18
10064;BME280;5071;52.360;13.134;2023-07-13T22:09:02;101261.47;;;16.35;79.60
10064;BME280;5071;52.360;13.134;2023-07-13T22:14:06;101262.91;;;16.14;81.73
10064;BME280;5071;52.360;13.134;2023-07-13T22:19:11;101264.50;;;16.21;81.25
10064;BME280;5071;52.360;13.134;2023-07-13T22:24:16;101252.94;;;16.21;81.48
10064;BME280;5071;52.360;13.134;2023-07-13T22:29:21;101275.00;;;16.29;81.32
10064;BME280;5071;52.360;13.134;2023-07-13T22:34:25;101261.63;;;16.29;80.61
10064;BME280;5071;52.360;13.134;2023-07-13T22:39:31;101255.22;;;16.35;80.40
10064;BME280;5071;52.360;13.134;2023-07-13T22:44:35;101210.88;;;16.24;79.06
10064;BME280;5071;52.360;13.134;2023-07-13T22:49:37;101255.66;;;16.50;79.12
10064;BME280;5071;52.360;13.134;2023-07-13T22:54:39;101267.69;;;16.36;79.71
10064;BME280;5071;52.360;13.134;2023-07-13T22:59:43;101273.25;;;16.29;80.27
10064;BME280;5071;52.360;13.134;2023-07-13T23:04:45;101273.28;;;16.28;80.14
10064;BME280;5071;52.360;13.134;2023-07-13T23:09:48;101282.34;;;16.22;80.37
10064;BME280;5071;52.360;13.134;2023-07-13T23:15:11;101287.88;;;16.16;80.55
10064;BME280;5071;52.360;13.134;2023-07-13T23:20:21;101283.66;;;16.07;80.76
10064;BME280;5071;52.360;13.134;2023-07-13T23:25:26;101283.06;;;15.96;81.41
10064;BME280;5071;52.360;13.134;2023-07-13T23:30:31;101280.22;;;15.65;82.21
10064;BME280;5071;52.360;13.134;2023-07-13T23:35:34;101279.78;;;15.47;83.55
10064;BME280;5071;52.360;13.134;2023-07-13T23:40:35;101266.97;;;15.23;84.83
10064;BME280;5071;52.360;13.134;2023-07-13T23:45:39;101274.28;;;15.14;85.37
10064;BME280;5071;52.360;13.134;2023-07-13T23:50:42;101274.63;;;14.99;86.13
10064;BME280;5071;52.360;13.134;2023-07-13T23:55:45;101279.19;;;14.94;86.98
